sensor_id;sensor_type;location;lat;lon;timestamp;P1;durP1;ratioP1;P2;durP2;ratioP2
78406;SDS011;67692;51.074;-1.790;2023-02-23T00:00:23;6.95;;;2.45;;
78406;SDS011;67692;51.074;-1.790;2023-02-23T00:02:52;5.00;;;2.20;;
78406;SDS011;67692;51.074;-1.790;2023-02-23T00:05:24;4.10;;;2.13;;
78406;SDS011;67692;51.074;-1.790;2023-02-23T00:07:51;5.70;;;2.25;;
78406;SDS011;67692;51.074;-1.790;2023-02-23T00:10:18;7.47;;;2.78;;
78406;SDS011;67692;51.074;-1.790;2023-02-23T00:12:45;8.65;;;3.38;;
78406;SDS011;67692;51.074;-1.790;2023-02-23T00:15:13;9.60;;;3.30;;
78406;SDS011;67692;51.074;-1.790;2023-02-23T00:17:40;8.85;;;3.30;;
78406;SDS011;67692;51.074;-1.790;2023-02-23T00:20:09;10.13;;;3.97;;
78406;SDS011;67692;51.074;-1.790;2023-02-23T00:22:39;9.90;;;4.22;;
78406;SDS011;67692;51.074;-1.790;2023-02-23T00:25:06;9.98;;;4.22;;
78406;SDS011;67692;51.074;-1.790;2023-02-23T00:27:34;11.20;;;6.05;;
78406;SDS011;67692;51.074;-1.790;2023-02-23T00:30:03;11.40;;;5.00;;
78406;SDS011;67692;51.074;-1.790;2023-02-23T00:32:32;14.23;;;5.78;;
78406;SDS011;67692;51.074;-1.790;2023-02-23T00:34:59;13.13;;;5.85;;
78406;SDS011;67692;51.074;-1.790;2023-02-23T00:37:25;15.40;;;5.85;;
78406;SDS011;67692;51.074;-1.790;2023-02-23T00:39:54;13.02;;;5.72;;
78406;SDS011;67692;51.074;-1.790;2023-02-23T00:42:21;11.85;;;5.82;;
78406;SDS011;67692;51.074;-1.790;2023-02-23T00:44:48;15.38;;;5.90;;
78406;SDS011;67692;51.074;-1.790;2023-02-23T00:47:15;10.15;;;5.13;;
78406;SDS011;67692;51.074;-1.790;2023-02-23T00:49:41;15.80;;;7.07;;
78406;SDS011;67692;51.074;-1.790;2023-02-23T00:52:09;13.23;;;6.63;;
78406;SDS011;67692;51.074;-1.790;2023-02-23T00:54:38;12.80;;;6.32;;
78406;SDS011;67692;51.074;-1.790;2023-02-23T00:57:06;14.32;;;6.43;;
78406;SDS011;67692;51.074;-1.790;2023-02-23T00:59:33;12.50;;;6.63;;
78406;SDS011;67692;51.074;-1.790;2023-02-23T01:02:01;13.13;;;7.18;;
78406;SDS011;67692;51.074;-1.790;2023-02-23T01:04:29;12.00;;;6.80;;
78406;SDS011;67692;51.074;-1.790;2023-02-23T01:06:56;16.20;;;7.30;;
78406;SDS011;67692;51.074;-1.790;2023-02-23T01:09:23;19.00;;;6.65;;
78406;SDS011;67692;51.074;-1.790;2023-02-23T01:14:23;13.18;;;6.28;;
78406;SDS011;67692;51.074;-1.790;2023-02-23T01:16:50;16.13;;;7.05;;
78406;SDS011;67692;51.074;-1.790;2023-02-23T01:19:16;13.25;;;6.60;;
78406;SDS011;67692;51.074;-1.790;2023-02-23T01:21:43;14.82;;;6.57;;
78406;SDS011;67692;51.074;-1.790;2023-02-23T01:24:10;14.80;;;6.75;;
78406;SDS011;67692;51.074;-1.790;2023-02-23T01:26:38;14.77;;;7.05;;
78406;SDS011;67692;51.074;-1.790;2023-02-23T01:29:06;13.77;;;6.65;;
78406;SDS011;67692;51.074;-1.790;2023-02-23T01:31:36;12.30;;;6.63;;
78406;SDS011;67692;51.074;-1.790;2023-02-23T01:34:05;15.23;;;7.53;;
78406;SDS011;67692;51.074;-1.790;2023-02-23T01:36:33;14.32;;;7.38;;
78406;SDS011;67692;51.074;-1.790;2023-02-23T01:39:00;13.38;;;6.30;;
78406;SDS011;67692;51.074;-1.790;2023-02-23T01:41:32;14.68;;;7.20;;
78406;SDS011;67692;51.074;-1.790;2023-02-23T01:44:00;12.65;;;6.90;;
78406;SDS011;67692;51.074;-1.790;2023-02-23T01:46:29;16.08;;;7.45;;
78406;SDS011;67692;51.074;-1.790;2023-02-23T01:48:58;14.55;;;6.88;;
78406;SDS011;67692;51.074;-1.790;2023-02-23T01:51:25;15.40;;;7.00;;
78406;SDS011;67692;51.074;-1.790;2023-02-23T01:53:55;13.25;;;6.50;;
78406;SDS011;67692;51.074;-1.790;2023-02-23T01:56:26;12.07;;;6.43;;
78406;SDS011;67692;51.074;-1.790;2023-02-23T01:58:56;14.70;;;6.50;;
78406;SDS011;67692;51.074;-1.790;2023-02-23T02:01:27;13.18;;;7.10;;
78406;SDS011;67692;51.074;-1.790;2023-02-23T02:03:56;15.48;;;6.63;;
78406;SDS011;67692;51.074;-1.790;2023-02-23T02:08:55;12.10;;;5.70;;
78406;SDS011;67692;51.074;-1.790;2023-02-23T02:11:25;13.25;;;6.68;;
78406;SDS011;67692;51.074;-1.790;2023-02-23T02:13:56;14.55;;;6.78;;
78406;SDS011;67692;51.074;-1.790;2023-02-23T02:16:34;15.77;;;7.00;;
78406;SDS011;67692;51.074;-1.790;2023-02-23T02:19:38;12.93;;;6.35;;
78406;SDS011;67692;51.074;-1.790;2023-02-23T02:22:44;10.82;;;5.32;;
78406;SDS011;67692;51.074;-1.790;2023-02-23T02:25:30;12.23;;;5.72;;
78406;SDS011;67692;51.074;-1.790;2023-02-23T02:28:16;11.77;;;5.18;;
78406;SDS011;67692;51.074;-1.790;2023-02-23T02:34:31;13.70;;;5.68;;
78406;SDS011;67692;51.074;-1.790;2023-02-23T02:37:26;9.05;;;4.68;;
78406;SDS011;67692;51.074;-1.790;2023-02-23T02:40:03;9.77;;;4.78;;
78406;SDS011;67692;51.074;-1.790;2023-02-23T02:42:48;10.48;;;5.40;;
78406;SDS011;67692;51.074;-1.790;2023-02-23T02:45:22;10.40;;;4.55;;
78406;SDS011;67692;51.074;-1.790;2023-02-23T02:47:54;11.38;;;5.00;;
78406;SDS011;67692;51.074;-1.790;2023-02-23T02:50:26;9.95;;;4.78;;
78406;SDS011;67692;51.074;-1.790;2023-02-23T02:53:01;10.35;;;5.05;;
78406;SDS011;67692;51.074;-1.790;2023-02-23T02:55:32;9.45;;;4.68;;
78406;SDS011;67692;51.074;-1.790;2023-02-23T02:58:02;9.07;;;4.55;;
78406;SDS011;67692;51.074;-1.790;2023-02-23T03:00:34;11.93;;;5.28;;
78406;SDS011;67692;51.074;-1.790;2023-02-23T03:03:26;9.13;;;4.68;;
78406;SDS011;67692;51.074;-1.790;2023-02-23T03:06:12;10.52;;;5.38;;
78406;SDS011;67692;51.074;-1.790;2023-02-23T03:08:59;8.43;;;4.47;;
78406;SDS011;67692;51.074;-1.790;2023-02-23T03:11:52;9.45;;;4.13;;
78406;SDS011;67692;51.074;-1.790;2023-02-23T03:14:47;9.55;;;4.10;;
78406;SDS011;67692;51.074;-1.790;2023-02-23T03:17:41;9.55;;;4.78;;
78406;SDS011;67692;51.074;-1.790;2023-02-23T03:20:29;11.77;;;4.30;;
78406;SDS011;67692;51.074;-1.790;2023-02-23T03:23:26;10.90;;;4.35;;
78406;SDS011;67692;51.074;-1.790;2023-02-23T03:26:20;8.32;;;4.90;;
78406;SDS011;67692;51.074;-1.790;2023-02-23T03:29:11;8.73;;;4.40;;
78406;SDS011;67692;51.074;-1.790;2023-02-23T03:32:01;11.60;;;5.25;;
78406;SDS011;67692;51.074;-1.790;2023-02-23T03:34:53;8.98;;;4.95;;
78406;SDS011;67692;51.074;-1.790;2023-02-23T03:37:44;12.05;;;4.93;;
78406;SDS011;67692;51.074;-1.790;2023-02-23T03:40:35;8.38;;;4.55;;
78406;SDS011;67692;51.074;-1.790;2023-02-23T03:43:24;10.77;;;5.28;;
78406;SDS011;67692;51.074;-1.790;2023-02-23T03:46:11;11.77;;;5.50;;
78406;SDS011;67692;51.074;-1.790;2023-02-23T03:48:57;13.35;;;5.15;;
78406;SDS011;67692;51.074;-1.790;2023-02-23T03:51:45;12.02;;;5.53;;
78406;SDS011;67692;51.074;-1.790;2023-02-23T03:54:34;11.38;;;5.32;;
78406;SDS011;67692;51.074;-1.790;2023-02-23T04:00:10;10.30;;;5.32;;
78406;SDS011;67692;51.074;-1.790;2023-02-23T04:02:57;10.85;;;5.35;;
78406;SDS011;67692;51.074;-1.790;2023-02-23T04:05:44;13.27;;;6.05;;
78406;SDS011;67692;51.074;-1.790;2023-02-23T04:08:31;13.75;;;5.25;;
78406;SDS011;67692;51.074;-1.790;2023-02-23T04:11:19;14.98;;;7.28;;
78406;SDS011;67692;51.074;-1.790;2023-02-23T04:14:12;12.20;;;5.10;;
78406;SDS011;67692;51.074;-1.790;2023-02-23T04:16:43;11.18;;;5.53;;
78406;SDS011;67692;51.074;-1.790;2023-02-23T04:19:09;10.48;;;5.20;;
78406;SDS011;67692;51.074;-1.790;2023-02-23T04:21:36;11.00;;;4.72;;
78406;SDS011;67692;51.074;-1.790;2023-02-23T04:24:03;13.68;;;5.90;;
78406;SDS011;67692;51.074;-1.790;2023-02-23T04:26:30;11.02;;;5.70;;
78406;SDS011;67692;51.074;-1.790;2023-02-23T04:28:56;12.00;;;5.88;;
78406;SDS011;67692;51.074;-1.790;2023-02-23T04:31:23;10.55;;;5.57;;
78406;SDS011;67692;51.074;-1.790;2023-02-23T04:33:50;16.50;;;5.82;;
78406;SDS011;67692;51.074;-1.790;2023-02-23T04:36:17;11.82;;;5.65;;
78406;SDS011;67692;51.074;-1.790;2023-02-23T04:38:44;11.38;;;5.57;;
78406;SDS011;67692;51.074;-1.790;2023-02-23T04:41:10;11.93;;;5.38;;
78406;SDS011;67692;51.074;-1.790;2023-02-23T04:43:37;10.20;;;5.03;;
78406;SDS011;67692;51.074;-1.790;2023-02-23T04:46:03;10.40;;;4.88;;
78406;SDS011;67692;51.074;-1.790;2023-02-23T04:48:30;17.75;;;5.90;;
78406;SDS011;67692;51.074;-1.790;2023-02-23T04:50:58;11.48;;;5.32;;
78406;SDS011;67692;51.074;-1.790;2023-02-23T04:53:24;11.73;;;5.88;;
78406;SDS011;67692;51.074;-1.790;2023-02-23T04:55:51;10.68;;;5.25;;
78406;SDS011;67692;51.074;-1.790;2023-02-23T04:58:18;8.50;;;4.65;;
78406;SDS011;67692;51.074;-1.790;2023-02-23T05:00:45;11.27;;;4.72;;
78406;SDS011;67692;51.074;-1.790;2023-02-23T05:03:12;9.98;;;5.13;;
78406;SDS011;67692;51.074;-1.790;2023-02-23T05:05:38;12.55;;;5.47;;
78406;SDS011;67692;51.074;-1.790;2023-02-23T05:08:06;10.60;;;4.75;;
78406;SDS011;67692;51.074;-1.790;2023-02-23T05:10:33;10.30;;;5.18;;
78406;SDS011;67692;51.074;-1.790;2023-02-23T05:12:59;9.20;;;4.70;;
78406;SDS011;67692;51.074;-1.790;2023-02-23T05:15:26;9.68;;;4.90;;
78406;SDS011;67692;51.074;-1.790;2023-02-23T05:17:53;11.38;;;5.32;;
78406;SDS011;67692;51.074;-1.790;2023-02-23T05:20:20;11.00;;;4.53;;
78406;SDS011;67692;51.074;-1.790;2023-02-23T05:22:47;11.23;;;4.93;;
78406;SDS011;67692;51.074;-1.790;2023-02-23T05:25:15;10.52;;;5.22;;
78406;SDS011;67692;51.074;-1.790;2023-02-23T05:27:42;9.63;;;4.72;;
78406;SDS011;67692;51.074;-1.790;2023-02-23T05:30:09;10.88;;;4.75;;
78406;SDS011;67692;51.074;-1.790;2023-02-23T05:32:36;8.80;;;4.32;;
78406;SDS011;67692;51.074;-1.790;2023-02-23T05:35:03;10.40;;;4.07;;
78406;SDS011;67692;51.074;-1.790;2023-02-23T05:37:31;11.98;;;4.47;;
78406;SDS011;67692;51.074;-1.790;2023-02-23T05:39:57;9.02;;;4.63;;
78406;SDS011;67692;51.074;-1.790;2023-02-23T05:42:25;8.23;;;4.13;;
78406;SDS011;67692;51.074;-1.790;2023-02-23T05:44:52;9.60;;;4.30;;
78406;SDS011;67692;51.074;-1.790;2023-02-23T05:47:18;9.38;;;4.93;;
78406;SDS011;67692;51.074;-1.790;2023-02-23T05:49:45;10.57;;;3.40;;
78406;SDS011;67692;51.074;-1.790;2023-02-23T05:52:12;11.43;;;4.20;;
78406;SDS011;67692;51.074;-1.790;2023-02-23T05:54:38;9.38;;;5.15;;
78406;SDS011;67692;51.074;-1.790;2023-02-23T05:57:05;7.38;;;3.92;;
78406;SDS011;67692;51.074;-1.790;2023-02-23T05:59:33;9.10;;;4.35;;
78406;SDS011;67692;51.074;-1.790;2023-02-23T06:02:00;7.65;;;3.47;;
78406;SDS011;67692;51.074;-1.790;2023-02-23T06:04:30;10.15;;;4.53;;
78406;SDS011;67692;51.074;-1.790;2023-02-23T06:06:56;11.77;;;3.97;;
78406;SDS011;67692;51.074;-1.790;2023-02-23T06:09:23;8.95;;;4.40;;
78406;SDS011;67692;51.074;-1.790;2023-02-23T06:11:50;8.00;;;3.85;;
78406;SDS011;67692;51.074;-1.790;2023-02-23T06:14:17;7.18;;;3.47;;
78406;SDS011;67692;51.074;-1.790;2023-02-23T06:16:44;7.97;;;3.30;;
78406;SDS011;67692;51.074;-1.790;2023-02-23T06:19:12;10.05;;;3.47;;
78406;SDS011;67692;51.074;-1.790;2023-02-23T06:21:39;9.45;;;3.13;;
78406;SDS011;67692;51.074;-1.790;2023-02-23T06:24:06;7.72;;;3.55;;
78406;SDS011;67692;51.074;-1.790;2023-02-23T06:26:32;6.97;;;3.58;;
78406;SDS011;67692;51.074;-1.790;2023-02-23T06:28:59;12.65;;;4.20;;
78406;SDS011;67692;51.074;-1.790;2023-02-23T06:31:26;11.63;;;4.30;;
78406;SDS011;67692;51.074;-1.790;2023-02-23T06:33:54;7.55;;;3.28;;
78406;SDS011;67692;51.074;-1.790;2023-02-23T06:36:20;9.57;;;4.18;;
78406;SDS011;67692;51.074;-1.790;2023-02-23T06:38:47;7.97;;;3.30;;
78406;SDS011;67692;51.074;-1.790;2023-02-23T06:41:14;7.72;;;4.13;;
78406;SDS011;67692;51.074;-1.790;2023-02-23T06:43:40;10.35;;;4.50;;
78406;SDS011;67692;51.074;-1.790;2023-02-23T06:46:07;7.63;;;3.42;;
78406;SDS011;67692;51.074;-1.790;2023-02-23T06:48:33;7.25;;;3.05;;
78406;SDS011;67692;51.074;-1.790;2023-02-23T06:51:02;9.50;;;3.63;;
78406;SDS011;67692;51.074;-1.790;2023-02-23T06:53:28;9.75;;;3.35;;
78406;SDS011;67692;51.074;-1.790;2023-02-23T06:55:55;5.63;;;2.53;;
78406;SDS011;67692;51.074;-1.790;2023-02-23T06:58:22;9.00;;;3.20;;
78406;SDS011;67692;51.074;-1.790;2023-02-23T07:00:48;6.78;;;3.10;;
78406;SDS011;67692;51.074;-1.790;2023-02-23T07:03:15;6.60;;;2.78;;
78406;SDS011;67692;51.074;-1.790;2023-02-23T07:05:43;6.55;;;3.08;;
78406;SDS011;67692;51.074;-1.790;2023-02-23T07:08:11;4.68;;;2.30;;
78406;SDS011;67692;51.074;-1.790;2023-02-23T07:10:37;6.93;;;2.90;;
78406;SDS011;67692;51.074;-1.790;2023-02-23T07:13:05;4.53;;;2.47;;
78406;SDS011;67692;51.074;-1.790;2023-02-23T07:15:31;4.55;;;2.20;;
78406;SDS011;67692;51.074;-1.790;2023-02-23T07:17:59;5.40;;;2.80;;
78406;SDS011;67692;51.074;-1.790;2023-02-23T07:20:26;6.72;;;2.78;;
78406;SDS011;67692;51.074;-1.790;2023-02-23T07:22:52;4.53;;;2.30;;
78406;SDS011;67692;51.074;-1.790;2023-02-23T07:25:20;6.40;;;2.78;;
78406;SDS011;67692;51.074;-1.790;2023-02-23T07:27:47;6.03;;;2.90;;
78406;SDS011;67692;51.074;-1.790;2023-02-23T07:30:14;7.50;;;2.92;;
78406;SDS011;67692;51.074;-1.790;2023-02-23T07:32:42;7.75;;;2.83;;
78406;SDS011;67692;51.074;-1.790;2023-02-23T07:35:09;7.72;;;3.50;;
78406;SDS011;67692;51.074;-1.790;2023-02-23T07:37:35;9.80;;;3.17;;
78406;SDS011;67692;51.074;-1.790;2023-02-23T07:40:03;7.53;;;4.07;;
78406;SDS011;67692;51.074;-1.790;2023-02-23T07:42:31;5.97;;;2.97;;
78406;SDS011;67692;51.074;-1.790;2023-02-23T07:44:57;8.65;;;3.22;;
78406;SDS011;67692;51.074;-1.790;2023-02-23T07:47:24;7.20;;;3.00;;
78406;SDS011;67692;51.074;-1.790;2023-02-23T07:49:55;7.72;;;2.42;;
78406;SDS011;67692;51.074;-1.790;2023-02-23T07:52:23;6.22;;;2.38;;
78406;SDS011;67692;51.074;-1.790;2023-02-23T07:54:49;6.53;;;2.65;;
78406;SDS011;67692;51.074;-1.790;2023-02-23T07:57:16;8.55;;;3.00;;
78406;SDS011;67692;51.074;-1.790;2023-02-23T07:59:44;5.75;;;2.58;;
78406;SDS011;67692;51.074;-1.790;2023-02-23T08:02:11;5.85;;;2.83;;
78406;SDS011;67692;51.074;-1.790;2023-02-23T08:04:38;6.50;;;2.70;;
78406;SDS011;67692;51.074;-1.790;2023-02-23T08:07:07;6.32;;;2.20;;
78406;SDS011;67692;51.074;-1.790;2023-02-23T08:09:33;5.70;;;2.30;;
78406;SDS011;67692;51.074;-1.790;2023-02-23T08:12:00;5.43;;;2.20;;
78406;SDS011;67692;51.074;-1.790;2023-02-23T08:14:27;5.38;;;2.30;;
78406;SDS011;67692;51.074;-1.790;2023-02-23T08:16:54;6.35;;;2.90;;
78406;SDS011;67692;51.074;-1.790;2023-02-23T08:19:21;6.28;;;2.60;;
78406;SDS011;67692;51.074;-1.790;2023-02-23T08:21:48;4.53;;;2.05;;
78406;SDS011;67692;51.074;-1.790;2023-02-23T08:24:15;4.85;;;2.25;;
78406;SDS011;67692;51.074;-1.790;2023-02-23T08:26:42;6.38;;;2.15;;
78406;SDS011;67692;51.074;-1.790;2023-02-23T08:29:08;3.50;;;1.58;;
78406;SDS011;67692;51.074;-1.790;2023-02-23T08:31:35;4.13;;;1.98;;
78406;SDS011;67692;51.074;-1.790;2023-02-23T08:34:03;5.00;;;2.03;;
78406;SDS011;67692;51.074;-1.790;2023-02-23T08:36:29;5.82;;;1.90;;
78406;SDS011;67692;51.074;-1.790;2023-02-23T08:38:56;6.55;;;2.35;;
78406;SDS011;67692;51.074;-1.790;2023-02-23T08:41:24;7.00;;;2.53;;
78406;SDS011;67692;51.074;-1.790;2023-02-23T08:43:51;6.22;;;1.63;;
78406;SDS011;67692;51.074;-1.790;2023-02-23T08:46:18;10.18;;;2.42;;
78406;SDS011;67692;51.074;-1.790;2023-02-23T08:48:46;19.90;;;6.68;;
78406;SDS011;67692;51.074;-1.790;2023-02-23T08:51:14;23.83;;;8.48;;
78406;SDS011;67692;51.074;-1.790;2023-02-23T08:53:41;18.15;;;6.85;;
78406;SDS011;67692;51.074;-1.790;2023-02-23T08:56:09;24.10;;;10.20;;
78406;SDS011;67692;51.074;-1.790;2023-02-23T08:58:36;11.40;;;3.45;;
78406;SDS011;67692;51.074;-1.790;2023-02-23T09:01:03;7.22;;;2.70;;
78406;SDS011;67692;51.074;-1.790;2023-02-23T09:03:30;5.53;;;2.08;;
78406;SDS011;67692;51.074;-1.790;2023-02-23T09:06:03;12.60;;;4.03;;
78406;SDS011;67692;51.074;-1.790;2023-02-23T09:08:33;4.53;;;1.50;;
78406;SDS011;67692;51.074;-1.790;2023-02-23T09:11:00;8.90;;;2.40;;
78406;SDS011;67692;51.074;-1.790;2023-02-23T09:13:27;18.17;;;6.63;;
78406;SDS011;67692;51.074;-1.790;2023-02-23T09:15:53;9.93;;;2.25;;
78406;SDS011;67692;51.074;-1.790;2023-02-23T09:18:20;5.28;;;1.17;;
78406;SDS011;67692;51.074;-1.790;2023-02-23T09:20:48;6.53;;;1.50;;
78406;SDS011;67692;51.074;-1.790;2023-02-23T09:23:15;5.18;;;2.83;;
78406;SDS011;67692;51.074;-1.790;2023-02-23T09:25:43;8.02;;;2.55;;
78406;SDS011;67692;51.074;-1.790;2023-02-23T09:28:11;5.20;;;1.45;;
78406;SDS011;67692;51.074;-1.790;2023-02-23T09:30:38;12.93;;;2.05;;
78406;SDS011;67692;51.074;-1.790;2023-02-23T09:33:05;12.07;;;1.55;;
78406;SDS011;67692;51.074;-1.790;2023-02-23T09:35:33;3.97;;;1.55;;
78406;SDS011;67692;51.074;-1.790;2023-02-23T09:38:00;3.55;;;1.60;;
78406;SDS011;67692;51.074;-1.790;2023-02-23T09:40:28;5.55;;;1.38;;
78406;SDS011;67692;51.074;-1.790;2023-02-23T09:43:05;6.63;;;1.50;;
78406;SDS011;67692;51.074;-1.790;2023-02-23T09:45:39;7.32;;;1.65;;
78406;SDS011;67692;51.074;-1.790;2023-02-23T09:48:13;4.47;;;1.23;;
78406;SDS011;67692;51.074;-1.790;2023-02-23T09:50:44;6.05;;;1.13;;
78406;SDS011;67692;51.074;-1.790;2023-02-23T09:53:25;6.13;;;1.85;;
78406;SDS011;67692;51.074;-1.790;2023-02-23T09:55:56;7.03;;;1.50;;
78406;SDS011;67692;51.074;-1.790;2023-02-23T09:58:26;7.15;;;2.05;;
78406;SDS011;67692;51.074;-1.790;2023-02-23T10:01:01;4.47;;;1.20;;
78406;SDS011;67692;51.074;-1.790;2023-02-23T10:03:37;5.78;;;1.33;;
78406;SDS011;67692;51.074;-1.790;2023-02-23T10:06:08;11.38;;;1.45;;
78406;SDS011;67692;51.074;-1.790;2023-02-23T10:08:45;7.25;;;1.40;;
78406;SDS011;67692;51.074;-1.790;2023-02-23T10:11:26;5.53;;;1.55;;
78406;SDS011;67692;51.074;-1.790;2023-02-23T10:14:03;9.07;;;1.70;;
78406;SDS011;67692;51.074;-1.790;2023-02-23T10:16:41;5.30;;;1.10;;
78406;SDS011;67692;51.074;-1.790;2023-02-23T10:19:18;7.45;;;1.23;;
78406;SDS011;67692;51.074;-1.790;2023-02-23T10:21:53;8.55;;;1.20;;
78406;SDS011;67692;51.074;-1.790;2023-02-23T10:26:51;5.38;;;1.30;;
78406;SDS011;67692;51.074;-1.790;2023-02-23T10:29:22;7.72;;;1.58;;
78406;SDS011;67692;51.074;-1.790;2023-02-23T10:31:55;5.10;;;1.45;;
78406;SDS011;67692;51.074;-1.790;2023-02-23T10:34:23;7.55;;;1.50;;
78406;SDS011;67692;51.074;-1.790;2023-02-23T10:36:54;7.15;;;1.42;;
78406;SDS011;67692;51.074;-1.790;2023-02-23T10:39:24;5.45;;;0.90;;
78406;SDS011;67692;51.074;-1.790;2023-02-23T10:41:51;8.75;;;1.67;;
78406;SDS011;67692;51.074;-1.790;2023-02-23T10:44:20;6.95;;;1.63;;
78406;SDS011;67692;51.074;-1.790;2023-02-23T10:49:19;13.88;;;1.85;;
78406;SDS011;67692;51.074;-1.790;2023-02-23T10:51:48;6.38;;;1.40;;
78406;SDS011;67692;51.074;-1.790;2023-02-23T10:54:35;13.15;;;2.00;;
78406;SDS011;67692;51.074;-1.790;2023-02-23T10:57:12;5.43;;;1.20;;
78406;SDS011;67692;51.074;-1.790;2023-02-23T10:59:58;10.60;;;1.63;;
78406;SDS011;67692;51.074;-1.790;2023-02-23T11:02:29;12.45;;;2.40;;
78406;SDS011;67692;51.074;-1.790;2023-02-23T11:04:58;9.68;;;2.53;;
78406;SDS011;67692;51.074;-1.790;2023-02-23T11:07:26;12.40;;;1.50;;
78406;SDS011;67692;51.074;-1.790;2023-02-23T11:09:55;10.85;;;2.53;;
78406;SDS011;67692;51.074;-1.790;2023-02-23T11:12:22;11.07;;;2.53;;
78406;SDS011;67692;51.074;-1.790;2023-02-23T11:14:53;6.75;;;1.75;;
78406;SDS011;67692;51.074;-1.790;2023-02-23T11:17:27;7.53;;;1.20;;
78406;SDS011;67692;51.074;-1.790;2023-02-23T11:19:56;3.33;;;1.05;;
78406;SDS011;67692;51.074;-1.790;2023-02-23T11:22:28;13.05;;;1.77;;
78406;SDS011;67692;51.074;-1.790;2023-02-23T11:24:57;12.65;;;2.30;;
78406;SDS011;67692;51.074;-1.790;2023-02-23T11:27:25;10.85;;;1.38;;
78406;SDS011;67692;51.074;-1.790;2023-02-23T11:29:53;9.63;;;1.73;;
78406;SDS011;67692;51.074;-1.790;2023-02-23T11:32:22;8.75;;;1.48;;
78406;SDS011;67692;51.074;-1.790;2023-02-23T11:35:24;7.57;;;1.73;;
78406;SDS011;67692;51.074;-1.790;2023-02-23T11:37:54;6.80;;;1.50;;
78406;SDS011;67692;51.074;-1.790;2023-02-23T11:40:21;10.25;;;1.42;;
78406;SDS011;67692;51.074;-1.790;2023-02-23T11:42:50;5.20;;;1.10;;
78406;SDS011;67692;51.074;-1.790;2023-02-23T11:45:19;3.83;;;1.10;;
78406;SDS011;67692;51.074;-1.790;2023-02-23T11:47:49;11.25;;;1.48;;
78406;SDS011;67692;51.074;-1.790;2023-02-23T11:50:22;7.65;;;1.27;;
78406;SDS011;67692;51.074;-1.790;2023-02-23T11:52:54;6.15;;;1.00;;
78406;SDS011;67692;51.074;-1.790;2023-02-23T11:55:25;6.63;;;1.33;;
78406;SDS011;67692;51.074;-1.790;2023-02-23T11:58:05;7.93;;;1.27;;
78406;SDS011;67692;51.074;-1.790;2023-02-23T12:00:34;5.93;;;1.30;;
78406;SDS011;67692;51.074;-1.790;2023-02-23T12:03:02;5.88;;;1.20;;
78406;SDS011;67692;51.074;-1.790;2023-02-23T12:05:31;7.40;;;1.27;;
78406;SDS011;67692;51.074;-1.790;2023-02-23T12:08:00;8.13;;;1.38;;
78406;SDS011;67692;51.074;-1.790;2023-02-23T12:10:30;8.65;;;1.40;;
78406;SDS011;67692;51.074;-1.790;2023-02-23T12:13:03;6.05;;;1.00;;
78406;SDS011;67692;51.074;-1.790;2023-02-23T12:15:40;4.72;;;1.15;;
78406;SDS011;67692;51.074;-1.790;2023-02-23T12:18:15;9.20;;;1.60;;
78406;SDS011;67692;51.074;-1.790;2023-02-23T12:20:51;6.40;;;0.90;;
78406;SDS011;67692;51.074;-1.790;2023-02-23T12:23:23;4.65;;;1.33;;
78406;SDS011;67692;51.074;-1.790;2023-02-23T12:25:56;11.98;;;2.05;;
78406;SDS011;67692;51.074;-1.790;2023-02-23T12:28:28;10.90;;;2.28;;
78406;SDS011;67692;51.074;-1.790;2023-02-23T12:30:59;2.72;;;0.82;;
78406;SDS011;67692;51.074;-1.790;2023-02-23T12:33:35;12.90;;;2.53;;
78406;SDS011;67692;51.074;-1.790;2023-02-23T12:36:10;6.60;;;1.20;;
78406;SDS011;67692;51.074;-1.790;2023-02-23T12:38:47;11.88;;;1.25;;
78406;SDS011;67692;51.074;-1.790;2023-02-23T12:41:25;7.65;;;1.65;;
78406;SDS011;67692;51.074;-1.790;2023-02-23T12:44:02;9.10;;;1.50;;
78406;SDS011;67692;51.074;-1.790;2023-02-23T12:46:40;4.78;;;1.30;;
78406;SDS011;67692;51.074;-1.790;2023-02-23T12:49:15;9.07;;;1.48;;
78406;SDS011;67692;51.074;-1.790;2023-02-23T12:51:49;10.25;;;1.88;;
78406;SDS011;67692;51.074;-1.790;2023-02-23T12:54:19;9.43;;;1.48;;
78406;SDS011;67692;51.074;-1.790;2023-02-23T12:56:49;17.65;;;1.92;;
78406;SDS011;67692;51.074;-1.790;2023-02-23T13:02:24;9.63;;;1.55;;
78406;SDS011;67692;51.074;-1.790;2023-02-23T13:05:06;6.82;;;1.88;;
78406;SDS011;67692;51.074;-1.790;2023-02-23T13:07:42;9.85;;;2.42;;
78406;SDS011;67692;51.074;-1.790;2023-02-23T13:10:19;10.88;;;1.92;;
78406;SDS011;67692;51.074;-1.790;2023-02-23T13:12:57;7.25;;;1.63;;
78406;SDS011;67692;51.074;-1.790;2023-02-23T13:15:34;12.30;;;1.90;;
78406;SDS011;67692;51.074;-1.790;2023-02-23T13:18:12;6.93;;;1.63;;
78406;SDS011;67692;51.074;-1.790;2023-02-23T13:20:49;12.75;;;2.88;;
78406;SDS011;67692;51.074;-1.790;2023-02-23T13:23:21;7.93;;;2.10;;
78406;SDS011;67692;51.074;-1.790;2023-02-23T13:25:56;11.35;;;2.50;;
78406;SDS011;67692;51.074;-1.790;2023-02-23T13:28:39;10.85;;;1.85;;
78406;SDS011;67692;51.074;-1.790;2023-02-23T13:31:18;6.93;;;1.55;;
78406;SDS011;67692;51.074;-1.790;2023-02-23T13:33:49;12.45;;;1.90;;
78406;SDS011;67692;51.074;-1.790;2023-02-23T13:36:18;9.73;;;1.50;;
78406;SDS011;67692;51.074;-1.790;2023-02-23T13:38:49;9.25;;;1.42;;
78406;SDS011;67692;51.074;-1.790;2023-02-23T13:44:05;8.90;;;1.70;;
78406;SDS011;67692;51.074;-1.790;2023-02-23T13:46:44;9.38;;;1.60;;
78406;SDS011;67692;51.074;-1.790;2023-02-23T13:49:19;5.43;;;1.67;;
78406;SDS011;67692;51.074;-1.790;2023-02-23T13:51:59;6.20;;;1.33;;
78406;SDS011;67692;51.074;-1.790;2023-02-23T13:54:34;6.68;;;1.60;;
78406;SDS011;67692;51.074;-1.790;2023-02-23T13:57:02;5.90;;;1.30;;
78406;SDS011;67692;51.074;-1.790;2023-02-23T13:59:30;8.60;;;1.60;;
78406;SDS011;67692;51.074;-1.790;2023-02-23T14:02:18;6.30;;;1.67;;
78406;SDS011;67692;51.074;-1.790;2023-02-23T14:04:53;4.28;;;1.40;;
78406;SDS011;67692;51.074;-1.790;2023-02-23T14:07:24;7.22;;;1.70;;
78406;SDS011;67692;51.074;-1.790;2023-02-23T14:09:57;9.93;;;1.73;;
78406;SDS011;67692;51.074;-1.790;2023-02-23T14:12:32;7.85;;;1.23;;
78406;SDS011;67692;51.074;-1.790;2023-02-23T14:20:54;10.70;;;1.80;;
78406;SDS011;67692;51.074;-1.790;2023-02-23T14:23:28;12.10;;;1.85;;
78406;SDS011;67692;51.074;-1.790;2023-02-23T14:26:09;8.93;;;1.75;;
78406;SDS011;67692;51.074;-1.790;2023-02-23T14:28:41;12.10;;;1.95;;
78406;SDS011;67692;51.074;-1.790;2023-02-23T14:31:15;10.60;;;1.77;;
78406;SDS011;67692;51.074;-1.790;2023-02-23T14:33:50;11.43;;;2.08;;
78406;SDS011;67692;51.074;-1.790;2023-02-23T14:36:28;9.10;;;1.45;;
78406;SDS011;67692;51.074;-1.790;2023-02-23T14:39:03;9.07;;;1.65;;
78406;SDS011;67692;51.074;-1.790;2023-02-23T14:41:35;11.88;;;1.60;;
78406;SDS011;67692;51.074;-1.790;2023-02-23T14:44:07;6.85;;;1.80;;
78406;SDS011;67692;51.074;-1.790;2023-02-23T14:46:45;6.32;;;1.20;;
78406;SDS011;67692;51.074;-1.790;2023-02-23T14:49:16;8.35;;;1.60;;
78406;SDS011;67692;51.074;-1.790;2023-02-23T14:51:45;9.45;;;2.03;;
78406;SDS011;67692;51.074;-1.790;2023-02-23T14:54:24;10.73;;;1.63;;
78406;SDS011;67692;51.074;-1.790;2023-02-23T14:56:53;9.88;;;1.33;;
78406;SDS011;67692;51.074;-1.790;2023-02-23T14:59:23;12.82;;;2.10;;
78406;SDS011;67692;51.074;-1.790;2023-02-23T15:01:52;11.52;;;1.30;;
78406;SDS011;67692;51.074;-1.790;2023-02-23T15:04:20;9.32;;;1.55;;
78406;SDS011;67692;51.074;-1.790;2023-02-23T15:06:51;7.18;;;2.13;;
78406;SDS011;67692;51.074;-1.790;2023-02-23T15:09:21;10.40;;;2.75;;
78406;SDS011;67692;51.074;-1.790;2023-02-23T15:11:56;10.38;;;3.08;;
78406;SDS011;67692;51.074;-1.790;2023-02-23T15:14:24;16.52;;;2.65;;
78406;SDS011;67692;51.074;-1.790;2023-02-23T15:16:51;8.80;;;2.30;;
78406;SDS011;67692;51.074;-1.790;2023-02-23T15:19:18;5.90;;;2.25;;
78406;SDS011;67692;51.074;-1.790;2023-02-23T15:21:49;10.73;;;1.77;;